sensor_id;sensor_type;location;lat;lon;timestamp;temperature;humidity
11573;DHT22;5842;52.426;4.886;2022-11-15T00:00:45;6.30;99.90
11573;DHT22;5842;52.426;4.886;2022-11-15T00:03:13;6.30;99.90
11573;DHT22;5842;52.426;4.886;2022-11-15T00:05:41;6.30;99.90
11573;DHT22;5842;52.426;4.886;2022-11-15T00:08:10;6.30;99.90
11573;DHT22;5842;52.426;4.886;2022-11-15T00:10:37;6.30;99.90
11573;DHT22;5842;52.426;4.886;2022-11-15T00:13:05;6.30;99.90
11573;DHT22;5842;52.426;4.886;2022-11-15T00:15:35;6.30;99.90
11573;DHT22;5842;52.426;4.886;2022-11-15T00:18:03;6.30;99.90
11573;DHT22;5842;52.426;4.886;2022-11-15T00:20:33;6.30;99.90
11573;DHT22;5842;52.426;4.886;2022-11-15T00:23:00;6.30;99.90
11573;DHT22;5842;52.426;4.886;2022-11-15T00:25:31;6.30;99.90
11573;DHT22;5842;52.426;4.886;2022-11-15T00:27:59;6.40;99.90
11573;DHT22;5842;52.426;4.886;2022-11-15T00:30:27;6.40;99.90
11573;DHT22;5842;52.426;4.886;2022-11-15T00:32:54;6.50;99.90
11573;DHT22;5842;52.426;4.886;2022-11-15T00:35:22;6.50;99.90
11573;DHT22;5842;52.426;4.886;2022-11-15T00:37:49;6.50;99.90
11573;DHT22;5842;52.426;4.886;2022-11-15T00:40:18;6.50;99.90
11573;DHT22;5842;52.426;4.886;2022-11-15T00:42:47;6.50;99.90
11573;DHT22;5842;52.426;4.886;2022-11-15T00:45:14;6.50;99.90
11573;DHT22;5842;52.426;4.886;2022-11-15T00:47:44;6.50;99.90
11573;DHT22;5842;52.426;4.886;2022-11-15T00:50:13;6.50;99.90
11573;DHT22;5842;52.426;4.886;2022-11-15T00:52:41;6.50;99.90
11573;DHT22;5842;52.426;4.886;2022-11-15T00:55:09;6.50;99.90
11573;DHT22;5842;52.426;4.886;2022-11-15T00:57:40;6.60;99.90
11573;DHT22;5842;52.426;4.886;2022-11-15T01:00:09;6.60;99.90
11573;DHT22;5842;52.426;4.886;2022-11-15T01:02:37;6.70;99.90
11573;DHT22;5842;52.426;4.886;2022-11-15T01:05:05;6.70;99.90
11573;DHT22;5842;52.426;4.886;2022-11-15T01:07:32;6.70;99.90
11573;DHT22;5842;52.426;4.886;2022-11-15T01:09:59;6.70;99.90
11573;DHT22;5842;52.426;4.886;2022-11-15T01:12:27;6.70;99.90
11573;DHT22;5842;52.426;4.886;2022-11-15T01:14:54;6.70;99.90
11573;DHT22;5842;52.426;4.886;2022-11-15T01:17:23;6.70;99.90
11573;DHT22;5842;52.426;4.886;2022-11-15T01:19:50;6.70;99.90
11573;DHT22;5842;52.426;4.886;2022-11-15T01:22:18;6.70;99.90
11573;DHT22;5842;52.426;4.886;2022-11-15T01:24:45;6.70;99.90
11573;DHT22;5842;52.426;4.886;2022-11-15T01:27:13;6.70;99.90
11573;DHT22;5842;52.426;4.886;2022-11-15T01:29:40;6.70;99.90
11573;DHT22;5842;52.426;4.886;2022-11-15T01:32:07;6.70;99.90
11573;DHT22;5842;52.426;4.886;2022-11-15T01:34:36;6.80;99.90
11573;DHT22;5842;52.426;4.886;2022-11-15T01:37:03;6.80;99.90
11573;DHT22;5842;52.426;4.886;2022-11-15T01:39:30;6.90;99.90
11573;DHT22;5842;52.426;4.886;2022-11-15T01:41:57;6.80;99.90
11573;DHT22;5842;52.426;4.886;2022-11-15T01:44:42;6.90;99.90
11573;DHT22;5842;52.426;4.886;2022-11-15T01:47:13;6.90;99.90
11573;DHT22;5842;52.426;4.886;2022-11-15T01:49:51;6.90;99.90
11573;DHT22;5842;52.426;4.886;2022-11-15T01:52:22;6.90;99.90
11573;DHT22;5842;52.426;4.886;2022-11-15T01:54:54;6.90;99.90
11573;DHT22;5842;52.426;4.886;2022-11-15T01:57:23;6.90;99.90
11573;DHT22;5842;52.426;4.886;2022-11-15T01:59:50;6.90;99.90
11573;DHT22;5842;52.426;4.886;2022-11-15T02:02:18;7.00;99.90
11573;DHT22;5842;52.426;4.886;2022-11-15T02:04:47;7.00;99.90
11573;DHT22;5842;52.426;4.886;2022-11-15T02:07:17;7.00;99.90
11573;DHT22;5842;52.426;4.886;2022-11-15T02:09:45;7.10;99.90
11573;DHT22;5842;52.426;4.886;2022-11-15T02:12:15;7.10;99.90
11573;DHT22;5842;52.426;4.886;2022-11-15T02:14:46;7.10;99.90
11573;DHT22;5842;52.426;4.886;2022-11-15T02:17:26;7.10;99.90
11573;DHT22;5842;52.426;4.886;2022-11-15T02:23:57;7.20;99.90
11573;DHT22;5842;52.426;4.886;2022-11-15T02:26:50;7.20;99.90
11573;DHT22;5842;52.426;4.886;2022-11-15T02:29:29;7.30;99.90
11573;DHT22;5842;52.426;4.886;2022-11-15T02:32:06;7.30;99.90
11573;DHT22;5842;52.426;4.886;2022-11-15T02:34:44;7.30;99.90
11573;DHT22;5842;52.426;4.886;2022-11-15T02:37:22;7.30;99.90
11573;DHT22;5842;52.426;4.886;2022-11-15T02:40:00;7.30;99.90
11573;DHT22;5842;52.426;4.886;2022-11-15T02:42:33;7.40;99.90
11573;DHT22;5842;52.426;4.886;2022-11-15T02:45:27;7.40;99.90
11573;DHT22;5842;52.426;4.886;2022-11-15T02:47:59;7.40;99.90
11573;DHT22;5842;52.426;4.886;2022-11-15T02:50:29;7.50;99.90
11573;DHT22;5842;52.426;4.886;2022-11-15T02:52:58;7.50;99.90
11573;DHT22;5842;52.426;4.886;2022-11-15T02:55:27;7.40;99.90
11573;DHT22;5842;52.426;4.886;2022-11-15T02:58:02;7.50;99.90
11573;DHT22;5842;52.426;4.886;2022-11-15T03:00:35;7.50;99.90
11573;DHT22;5842;52.426;4.886;2022-11-15T03:03:29;7.60;99.90
11573;DHT22;5842;52.426;4.886;2022-11-15T03:06:09;7.70;99.90
11573;DHT22;5842;52.426;4.886;2022-11-15T03:08:47;7.80;99.90
11573;DHT22;5842;52.426;4.886;2022-11-15T03:11:18;7.80;99.90
11573;DHT22;5842;52.426;4.886;2022-11-15T03:13:52;7.80;99.90
11573;DHT22;5842;52.426;4.886;2022-11-15T03:16:26;7.90;99.90
11573;DHT22;5842;52.426;4.886;2022-11-15T03:19:00;7.90;99.90
11573;DHT22;5842;52.426;4.886;2022-11-15T03:21:29;8.00;99.90
11573;DHT22;5842;52.426;4.886;2022-11-15T03:23:58;8.00;99.90
11573;DHT22;5842;52.426;4.886;2022-11-15T03:26:29;8.00;99.90
11573;DHT22;5842;52.426;4.886;2022-11-15T03:29:01;8.00;99.90
11573;DHT22;5842;52.426;4.886;2022-11-15T03:31:33;8.10;99.90
11573;DHT22;5842;52.426;4.886;2022-11-15T03:34:22;8.10;99.90
11573;DHT22;5842;52.426;4.886;2022-11-15T03:36:53;8.10;99.90
11573;DHT22;5842;52.426;4.886;2022-11-15T03:39:20;8.20;99.90
11573;DHT22;5842;52.426;4.886;2022-11-15T03:41:52;8.20;99.90
11573;DHT22;5842;52.426;4.886;2022-11-15T03:44:34;8.20;99.90
11573;DHT22;5842;52.426;4.886;2022-11-15T03:47:06;8.30;99.90
11573;DHT22;5842;52.426;4.886;2022-11-15T03:49:38;8.40;99.90
11573;DHT22;5842;52.426;4.886;2022-11-15T03:52:07;8.40;99.90
11573;DHT22;5842;52.426;4.886;2022-11-15T03:54:36;8.40;99.90
11573;DHT22;5842;52.426;4.886;2022-11-15T03:57:03;8.40;99.90
11573;DHT22;5842;52.426;4.886;2022-11-15T03:59:31;8.50;99.90
11573;DHT22;5842;52.426;4.886;2022-11-15T04:01:58;8.50;99.90
11573;DHT22;5842;52.426;4.886;2022-11-15T04:04:25;8.50;99.90
11573;DHT22;5842;52.426;4.886;2022-11-15T04:06:53;8.50;99.90
11573;DHT22;5842;52.426;4.886;2022-11-15T04:09:21;8.60;99.90
11573;DHT22;5842;52.426;4.886;2022-11-15T04:11:48;8.60;99.90
11573;DHT22;5842;52.426;4.886;2022-11-15T04:14:15;8.60;99.90
11573;DHT22;5842;52.426;4.886;2022-11-15T04:16:42;8.60;99.90
11573;DHT22;5842;52.426;4.886;2022-11-15T04:19:09;8.70;99.90
11573;DHT22;5842;52.426;4.886;2022-11-15T04:21:55;8.70;99.90
11573;DHT22;5842;52.426;4.886;2022-11-15T04:24:39;8.70;99.90
11573;DHT22;5842;52.426;4.886;2022-11-15T04:27:07;8.80;99.90
11573;DHT22;5842;52.426;4.886;2022-11-15T04:29:34;8.80;99.90
11573;DHT22;5842;52.426;4.886;2022-11-15T04:32:02;8.80;99.90
11573;DHT22;5842;52.426;4.886;2022-11-15T04:34:29;8.80;99.90
11573;DHT22;5842;52.426;4.886;2022-11-15T04:36:58;8.90;99.90
11573;DHT22;5842;52.426;4.886;2022-11-15T04:39:39;8.90;99.90
11573;DHT22;5842;52.426;4.886;2022-11-15T04:42:07;8.90;99.90
11573;DHT22;5842;52.426;4.886;2022-11-15T04:44:34;8.90;99.90
11573;DHT22;5842;52.426;4.886;2022-11-15T04:47:02;9.00;99.90
11573;DHT22;5842;52.426;4.886;2022-11-15T04:49:29;9.00;99.90
11573;DHT22;5842;52.426;4.886;2022-11-15T04:51:58;9.10;99.90
11573;DHT22;5842;52.426;4.886;2022-11-15T04:54:28;9.10;99.90
11573;DHT22;5842;52.426;4.886;2022-11-15T04:56:55;9.10;99.90
11573;DHT22;5842;52.426;4.886;2022-11-15T04:59:22;9.20;99.90
11573;DHT22;5842;52.426;4.886;2022-11-15T05:01:50;9.30;99.90
11573;DHT22;5842;52.426;4.886;2022-11-15T05:04:17;9.30;99.90
11573;DHT22;5842;52.426;4.886;2022-11-15T05:06:49;9.30;99.90
11573;DHT22;5842;52.426;4.886;2022-11-15T05:09:20;9.30;99.90
11573;DHT22;5842;52.426;4.886;2022-11-15T05:11:47;9.30;99.90
11573;DHT22;5842;52.426;4.886;2022-11-15T05:14:14;9.30;99.90
11573;DHT22;5842;52.426;4.886;2022-11-15T05:16:42;9.30;99.90
11573;DHT22;5842;52.426;4.886;2022-11-15T05:19:09;9.40;99.90
11573;DHT22;5842;52.426;4.886;2022-11-15T05:21:37;9.40;99.90
11573;DHT22;5842;52.426;4.886;2022-11-15T05:24:04;9.40;99.90
11573;DHT22;5842;52.426;4.886;2022-11-15T05:26:33;9.50;99.90
11573;DHT22;5842;52.426;4.886;2022-11-15T05:29:00;9.50;99.90
11573;DHT22;5842;52.426;4.886;2022-11-15T05:31:27;9.60;99.90
11573;DHT22;5842;52.426;4.886;2022-11-15T05:33:55;9.60;99.90
11573;DHT22;5842;52.426;4.886;2022-11-15T05:36:29;9.60;99.90
11573;DHT22;5842;52.426;4.886;2022-11-15T05:38:58;9.70;99.90
11573;DHT22;5842;52.426;4.886;2022-11-15T05:41:28;9.70;99.90
11573;DHT22;5842;52.426;4.886;2022-11-15T05:44:00;9.80;99.90
11573;DHT22;5842;52.426;4.886;2022-11-15T05:46:28;9.90;99.90
11573;DHT22;5842;52.426;4.886;2022-11-15T05:48:56;9.90;99.90
11573;DHT22;5842;52.426;4.886;2022-11-15T05:51:24;9.80;99.90
11573;DHT22;5842;52.426;4.886;2022-11-15T05:53:55;9.90;99.90
11573;DHT22;5842;52.426;4.886;2022-11-15T05:56:24;9.90;99.90
11573;DHT22;5842;52.426;4.886;2022-11-15T05:58:52;9.90;99.90
11573;DHT22;5842;52.426;4.886;2022-11-15T06:01:21;9.90;99.90
11573;DHT22;5842;52.426;4.886;2022-11-15T06:03:48;9.90;99.90
11573;DHT22;5842;52.426;4.886;2022-11-15T06:06:15;9.90;99.90
11573;DHT22;5842;52.426;4.886;2022-11-15T06:08:42;9.90;99.90
11573;DHT22;5842;52.426;4.886;2022-11-15T06:11:10;10.00;99.90
11573;DHT22;5842;52.426;4.886;2022-11-15T06:13:37;10.00;99.90
11573;DHT22;5842;52.426;4.886;2022-11-15T06:16:04;10.00;99.90
11573;DHT22;5842;52.426;4.886;2022-11-15T06:18:34;10.00;99.90
11573;DHT22;5842;52.426;4.886;2022-11-15T06:21:01;10.00;99.90
11573;DHT22;5842;52.426;4.886;2022-11-15T06:23:32;10.00;99.90
11573;DHT22;5842;52.426;4.886;2022-11-15T06:26:00;10.00;99.90
11573;DHT22;5842;52.426;4.886;2022-11-15T06:28:28;10.00;99.90
11573;DHT22;5842;52.426;4.886;2022-11-15T06:30:56;10.00;99.90
11573;DHT22;5842;52.426;4.886;2022-11-15T06:33:23;9.90;99.90
11573;DHT22;5842;52.426;4.886;2022-11-15T06:35:52;9.90;99.90
11573;DHT22;5842;52.426;4.886;2022-11-15T06:38:19;9.90;99.90
11573;DHT22;5842;52.426;4.886;2022-11-15T06:40:46;9.90;99.90
11573;DHT22;5842;52.426;4.886;2022-11-15T06:43:13;9.90;99.90
11573;DHT22;5842;52.426;4.886;2022-11-15T06:45:40;9.90;99.90
11573;DHT22;5842;52.426;4.886;2022-11-15T06:48:08;9.90;99.90
11573;DHT22;5842;52.426;4.886;2022-11-15T06:50:35;9.80;99.90
11573;DHT22;5842;52.426;4.886;2022-11-15T06:53:04;9.90;99.90
11573;DHT22;5842;52.426;4.886;2022-11-15T06:55:31;9.80;99.90
11573;DHT22;5842;52.426;4.886;2022-11-15T06:57:58;9.80;99.90
11573;DHT22;5842;52.426;4.886;2022-11-15T07:00:25;9.70;99.90
11573;DHT22;5842;52.426;4.886;2022-11-15T07:02:52;9.70;99.90
11573;DHT22;5842;52.426;4.886;2022-11-15T07:05:19;9.70;99.90
11573;DHT22;5842;52.426;4.886;2022-11-15T07:07:52;9.70;99.90
11573;DHT22;5842;52.426;4.886;2022-11-15T07:10:21;9.70;99.90
11573;DHT22;5842;52.426;4.886;2022-11-15T07:12:50;9.70;99.90
11573;DHT22;5842;52.426;4.886;2022-11-15T07:15:18;9.80;99.90
11573;DHT22;5842;52.426;4.886;2022-11-15T07:17:46;9.80;99.90
11573;DHT22;5842;52.426;4.886;2022-11-15T07:20:13;9.80;99.90
11573;DHT22;5842;52.426;4.886;2022-11-15T07:38:36;9.50;99.90
11573;DHT22;5842;52.426;4.886;2022-11-15T07:41:05;9.50;99.90
11573;DHT22;5842;52.426;4.886;2022-11-15T07:43:32;9.50;99.90
11573;DHT22;5842;52.426;4.886;2022-11-15T07:46:04;9.50;99.90
11573;DHT22;5842;52.426;4.886;2022-11-15T07:48:33;9.50;99.90
11573;DHT22;5842;52.426;4.886;2022-11-15T07:51:00;9.50;99.90
11573;DHT22;5842;52.426;4.886;2022-11-15T07:53:27;9.50;99.90
11573;DHT22;5842;52.426;4.886;2022-11-15T07:55:55;9.60;99.90
11573;DHT22;5842;52.426;4.886;2022-11-15T07:58:23;9.60;99.90
11573;DHT22;5842;52.426;4.886;2022-11-15T08:00:50;9.60;99.90
11573;DHT22;5842;52.426;4.886;2022-11-15T08:03:17;9.70;99.90
11573;DHT22;5842;52.426;4.886;2022-11-15T08:05:50;9.70;99.90
11573;DHT22;5842;52.426;4.886;2022-11-15T08:08:18;9.70;99.90
11573;DHT22;5842;52.426;4.886;2022-11-15T08:10:45;9.70;99.90
11573;DHT22;5842;52.426;4.886;2022-11-15T08:13:14;9.70;99.90
11573;DHT22;5842;52.426;4.886;2022-11-15T08:15:41;9.70;99.90
11573;DHT22;5842;52.426;4.886;2022-11-15T08:18:14;9.80;99.90
11573;DHT22;5842;52.426;4.886;2022-11-15T08:20:42;9.80;99.90
11573;DHT22;5842;52.426;4.886;2022-11-15T08:23:11;9.90;99.90
11573;DHT22;5842;52.426;4.886;2022-11-15T08:25:38;10.10;99.90
11573;DHT22;5842;52.426;4.886;2022-11-15T08:28:07;10.20;99.90
11573;DHT22;5842;52.426;4.886;2022-11-15T08:30:37;10.30;99.90
11573;DHT22;5842;52.426;4.886;2022-11-15T08:33:10;10.50;99.90
11573;DHT22;5842;52.426;4.886;2022-11-15T08:35:38;10.60;99.90
11573;DHT22;5842;52.426;4.886;2022-11-15T08:38:05;10.70;99.90
11573;DHT22;5842;52.426;4.886;2022-11-15T08:40:32;10.80;99.90
11573;DHT22;5842;52.426;4.886;2022-11-15T08:43:09;10.90;99.90
11573;DHT22;5842;52.426;4.886;2022-11-15T08:45:37;10.90;99.90
11573;DHT22;5842;52.426;4.886;2022-11-15T08:48:05;11.00;99.90
11573;DHT22;5842;52.426;4.886;2022-11-15T08:50:32;11.20;99.90
11573;DHT22;5842;52.426;4.886;2022-11-15T08:53:04;11.60;99.90
11573;DHT22;5842;52.426;4.886;2022-11-15T08:55:32;11.90;99.90
11573;DHT22;5842;52.426;4.886;2022-11-15T08:58:02;12.00;99.90
11573;DHT22;5842;52.426;4.886;2022-11-15T09:00:30;11.90;99.90
11573;DHT22;5842;52.426;4.886;2022-11-15T09:02:59;11.90;99.90
11573;DHT22;5842;52.426;4.886;2022-11-15T09:05:26;11.90;99.90
11573;DHT22;5842;52.426;4.886;2022-11-15T09:07:53;11.80;99.90
11573;DHT22;5842;52.426;4.886;2022-11-15T09:10:20;11.70;99.90
11573;DHT22;5842;52.426;4.886;2022-11-15T09:12:47;11.70;99.90
11573;DHT22;5842;52.426;4.886;2022-11-15T09:15:15;11.70;99.90
11573;DHT22;5842;52.426;4.886;2022-11-15T09:17:42;11.70;99.90
11573;DHT22;5842;52.426;4.886;2022-11-15T09:20:10;11.80;99.90
11573;DHT22;5842;52.426;4.886;2022-11-15T09:22:37;11.90;99.90
11573;DHT22;5842;52.426;4.886;2022-11-15T09:25:06;12.00;99.90
11573;DHT22;5842;52.426;4.886;2022-11-15T09:27:33;12.00;99.90
11573;DHT22;5842;52.426;4.886;2022-11-15T09:30:00;12.10;99.90
11573;DHT22;5842;52.426;4.886;2022-11-15T09:32:28;12.20;99.90
11573;DHT22;5842;52.426;4.886;2022-11-15T09:34:55;12.40;99.90
11573;DHT22;5842;52.426;4.886;2022-11-15T09:37:24;12.50;99.90
11573;DHT22;5842;52.426;4.886;2022-11-15T09:39:51;12.70;99.90
11573;DHT22;5842;52.426;4.886;2022-11-15T09:42:52;12.80;99.90
11573;DHT22;5842;52.426;4.886;2022-11-15T09:45:23;12.90;99.90
11573;DHT22;5842;52.426;4.886;2022-11-15T09:48:18;13.10;99.90
11573;DHT22;5842;52.426;4.886;2022-11-15T09:50:48;13.30;99.90
11573;DHT22;5842;52.426;4.886;2022-11-15T09:53:26;13.20;99.90
11573;DHT22;5842;52.426;4.886;2022-11-15T09:55:58;13.10;99.90
11573;DHT22;5842;52.426;4.886;2022-11-15T09:58:33;13.00;99.90
11573;DHT22;5842;52.426;4.886;2022-11-15T10:01:07;12.90;99.90
11573;DHT22;5842;52.426;4.886;2022-11-15T10:03:36;12.90;99.90
11573;DHT22;5842;52.426;4.886;2022-11-15T10:06:05;12.90;99.90
11573;DHT22;5842;52.426;4.886;2022-11-15T10:08:54;12.90;99.90
11573;DHT22;5842;52.426;4.886;2022-11-15T10:11:25;12.80;99.90
11573;DHT22;5842;52.426;4.886;2022-11-15T10:13:57;12.70;99.90
11573;DHT22;5842;52.426;4.886;2022-11-15T10:16:53;12.60;99.90
11573;DHT22;5842;52.426;4.886;2022-11-15T10:19:27;12.60;99.90
11573;DHT22;5842;52.426;4.886;2022-11-15T10:22:16;12.60;99.90
11573;DHT22;5842;52.426;4.886;2022-11-15T10:24:46;12.50;99.90
11573;DHT22;5842;52.426;4.886;2022-11-15T10:27:16;12.50;99.90
11573;DHT22;5842;52.426;4.886;2022-11-15T10:29:44;12.60;99.90
11573;DHT22;5842;52.426;4.886;2022-11-15T10:32:14;12.70;99.90
11573;DHT22;5842;52.426;4.886;2022-11-15T10:34:41;12.80;99.90
11573;DHT22;5842;52.426;4.886;2022-11-15T10:37:09;12.90;99.90
11573;DHT22;5842;52.426;4.886;2022-11-15T10:39:36;12.90;99.90
11573;DHT22;5842;52.426;4.886;2022-11-15T10:42:25;13.00;99.90
11573;DHT22;5842;52.426;4.886;2022-11-15T10:44:53;13.00;99.90
11573;DHT22;5842;52.426;4.886;2022-11-15T10:47:26;12.90;99.90
11573;DHT22;5842;52.426;4.886;2022-11-15T10:49:58;12.90;99.90
11573;DHT22;5842;52.426;4.886;2022-11-15T10:52:27;12.80;99.90
11573;DHT22;5842;52.426;4.886;2022-11-15T10:54:57;12.90;99.90
11573;DHT22;5842;52.426;4.886;2022-11-15T10:57:28;13.00;99.90
11573;DHT22;5842;52.426;4.886;2022-11-15T11:00:00;13.00;99.90
11573;DHT22;5842;52.426;4.886;2022-11-15T11:02:33;13.00;99.90
11573;DHT22;5842;52.426;4.886;2022-11-15T11:05:02;13.00;99.90
11573;DHT22;5842;52.426;4.886;2022-11-15T11:07:30;13.10;99.90
11573;DHT22;5842;52.426;4.886;2022-11-15T11:10:04;13.20;99.90
11573;DHT22;5842;52.426;4.886;2022-11-15T11:12:33;13.30;99.90
11573;DHT22;5842;52.426;4.886;2022-11-15T11:15:08;13.30;99.90
11573;DHT22;5842;52.426;4.886;2022-11-15T11:17:51;13.30;99.90
11573;DHT22;5842;52.426;4.886;2022-11-15T11:20:23;13.20;99.90
11573;DHT22;5842;52.426;4.886;2022-11-15T11:23:03;13.20;99.90
11573;DHT22;5842;52.426;4.886;2022-11-15T11:25:35;13.10;99.90
11573;DHT22;5842;52.426;4.886;2022-11-15T11:28:18;13.00;99.90
11573;DHT22;5842;52.426;4.886;2022-11-15T11:30:59;13.00;99.90
11573;DHT22;5842;52.426;4.886;2022-11-15T11:33:31;13.10;99.90
11573;DHT22;5842;52.426;4.886;2022-11-15T11:36:11;13.10;99.90
11573;DHT22;5842;52.426;4.886;2022-11-15T11:38:58;13.10;99.90
11573;DHT22;5842;52.426;4.886;2022-11-15T11:41:39;13.20;99.90
11573;DHT22;5842;52.426;4.886;2022-11-15T11:44:21;13.10;99.90
11573;DHT22;5842;52.426;4.886;2022-11-15T11:46:55;13.10;99.90
11573;DHT22;5842;52.426;4.886;2022-11-15T11:49:29;13.10;99.90
11573;DHT22;5842;52.426;4.886;2022-11-15T11:52:02;13.00;99.90
11573;DHT22;5842;52.426;4.886;2022-11-15T11:54:36;13.00;99.90
11573;DHT22;5842;52.426;4.886;2022-11-15T11:57:12;13.00;99.90
11573;DHT22;5842;52.426;4.886;2022-11-15T11:59:48;12.90;99.90
11573;DHT22;5842;52.426;4.886;2022-11-15T12:02:20;12.90;99.90
11573;DHT22;5842;52.426;4.886;2022-11-15T12:04:51;12.90;99.90
11573;DHT22;5842;52.426;4.886;2022-11-15T12:07:21;12.90;99.90
11573;DHT22;5842;52.426;4.886;2022-11-15T12:09:55;13.00;99.90
11573;DHT22;5842;52.426;4.886;2022-11-15T12:12:30;13.00;99.90
11573;DHT22;5842;52.426;4.886;2022-11-15T12:15:02;13.10;99.90
11573;DHT22;5842;52.426;4.886;2022-11-15T12:17:32;13.10;99.90
11573;DHT22;5842;52.426;4.886;2022-11-15T12:19:59;13.00;99.90
11573;DHT22;5842;52.426;4.886;2022-11-15T12:22:36;13.00;99.90
11573;DHT22;5842;52.426;4.886;2022-11-15T12:25:08;13.00;99.90
11573;DHT22;5842;52.426;4.886;2022-11-15T12:27:44;13.00;99.90
11573;DHT22;5842;52.426;4.886;2022-11-15T12:30:17;13.00;99.90
11573;DHT22;5842;52.426;4.886;2022-11-15T12:32:51;13.00;99.90
11573;DHT22;5842;52.426;4.886;2022-11-15T12:35:26;13.00;99.90
11573;DHT22;5842;52.426;4.886;2022-11-15T12:37:55;12.90;99.90
11573;DHT22;5842;52.426;4.886;2022-11-15T12:41:11;12.90;99.90
11573;DHT22;5842;52.426;4.886;2022-11-15T12:43:39;12.90;99.90
11573;DHT22;5842;52.426;4.886;2022-11-15T12:46:18;12.80;99.90
11573;DHT22;5842;52.426;4.886;2022-11-15T12:48:49;12.80;99.90
11573;DHT22;5842;52.426;4.886;2022-11-15T12:51:19;12.80;99.90
11573;DHT22;5842;52.426;4.886;2022-11-15T12:53:47;12.90;99.90
11573;DHT22;5842;52.426;4.886;2022-11-15T12:56:20;12.80;99.90
11573;DHT22;5842;52.426;4.886;2022-11-15T12:58:54;12.80;99.90
11573;DHT22;5842;52.426;4.886;2022-11-15T13:01:58;12.80;99.90
11573;DHT22;5842;52.426;4.886;2022-11-15T13:04:28;12.80;99.90
11573;DHT22;5842;52.426;4.886;2022-11-15T13:06:59;12.80;99.90
11573;DHT22;5842;52.426;4.886;2022-11-15T13:09:54;12.90;99.90
11573;DHT22;5842;52.426;4.886;2022-11-15T13:12:50;13.00;99.90
11573;DHT22;5842;52.426;4.886;2022-11-15T13:15:45;13.00;99.90
11573;DHT22;5842;52.426;4.886;2022-11-15T13:18:38;13.00;99.90
11573;DHT22;5842;52.426;4.886;2022-11-15T13:21:19;13.00;99.90
11573;DHT22;5842;52.426;4.886;2022-11-15T13:24:04;13.00;99.90
11573;DHT22;5842;52.426;4.886;2022-11-15T13:26:31;13.00;99.90
11573;DHT22;5842;52.426;4.886;2022-11-15T13:28:59;12.90;99.90
11573;DHT22;5842;52.426;4.886;2022-11-15T13:31:29;12.90;99.90
11573;DHT22;5842;52.426;4.886;2022-11-15T13:34:01;12.90;99.90
11573;DHT22;5842;52.426;4.886;2022-11-15T13:36:31;12.90;99.90
11573;DHT22;5842;52.426;4.886;2022-11-15T13:39:02;12.90;99.90
11573;DHT22;5842;52.426;4.886;2022-11-15T13:41:32;12.90;99.90
11573;DHT22;5842;52.426;4.886;2022-11-15T13:44:00;12.80;99.90
11573;DHT22;5842;52.426;4.886;2022-11-15T13:46:29;12.80;99.90
11573;DHT22;5842;52.426;4.886;2022-11-15T13:49:01;12.80;99.90
11573;DHT22;5842;52.426;4.886;2022-11-15T13:51:34;12.80;99.90
11573;DHT22;5842;52.426;4.886;2022-11-15T13:54:12;12.80;99.90
11573;DHT22;5842;52.426;4.886;2022-11-15T13:56:44;12.80;99.90
11573;DHT22;5842;52.426;4.886;2022-11-15T13:59:17;12.70;99.90
11573;DHT22;5842;52.426;4.886;2022-11-15T14:01:46;12.70;99.90
11573;DHT22;5842;52.426;4.886;2022-11-15T14:04:19;12.70;99.90
11573;DHT22;5842;52.426;4.886;2022-11-15T14:06:49;12.60;99.90
11573;DHT22;5842;52.426;4.886;2022-11-15T14:09:32;12.60;99.90
11573;DHT22;5842;52.426;4.886;2022-11-15T14:12:01;12.60;99.90
11573;DHT22;5842;52.426;4.886;2022-11-15T14:14:29;12.50;99.90
11573;DHT22;5842;52.426;4.886;2022-11-15T14:16:58;12.40;99.90
11573;DHT22;5842;52.426;4.886;2022-11-15T14:19:39;12.30;99.90
11573;DHT22;5842;52.426;4.886;2022-11-15T14:22:25;12.30;99.90
11573;DHT22;5842;52.426;4.886;2022-11-15T14:25:14;12.20;99.90
11573;DHT22;5842;52.426;4.886;2022-11-15T14:27:43;12.10;99.90
11573;DHT22;5842;52.426;4.886;2022-11-15T14:30:14;12.00;99.90
11573;DHT22;5842;52.426;4.886;2022-11-15T14:32:44;12.00;99.90
11573;DHT22;5842;52.426;4.886;2022-11-15T14:35:15;12.00;99.90
11573;DHT22;5842;52.426;4.886;2022-11-15T14:37:43;11.90;99.90
11573;DHT22;5842;52.426;4.886;2022-11-15T14:40:13;11.90;99.90
11573;DHT22;5842;52.426;4.886;2022-11-15T14:42:41;11.90;99.90
11573;DHT22;5842;52.426;4.886;2022-11-15T14:45:12;11.90;99.90
11573;DHT22;5842;52.426;4.886;2022-11-15T14:47:40;11.90;99.90
11573;DHT22;5842;52.426;4.886;2022-11-15T14:50:11;11.90;99.90
11573;DHT22;5842;52.426;4.886;2022-11-15T14:52:40;11.90;99.90
11573;DHT22;5842;52.426;4.886;2022-11-15T14:55:21;11.90;99.90
11573;DHT22;5842;52.426;4.886;2022-11-15T14:57:49;11.90;99.90
11573;DHT22;5842;52.426;4.886;2022-11-15T15:00:16;11.80;99.90
11573;DHT22;5842;52.426;4.886;2022-11-15T15:02:45;11.80;99.90
11573;DHT22;5842;52.426;4.886;2022-11-15T15:05:15;11.80;99.90
11573;DHT22;5842;52.426;4.886;2022-11-15T15:07:44;11.80;99.90
11573;DHT22;5842;52.426;4.886;2022-11-15T15:10:12;11.80;99.90
11573;DHT22;5842;52.426;4.886;2022-11-15T15:12:39;11.80;99.90
11573;DHT22;5842;52.426;4.886;2022-11-15T15:15:12;11.70;99.90
11573;DHT22;5842;52.426;4.886;2022-11-15T15:17:39;11.70;99.90
11573;DHT22;5842;52.426;4.886;2022-11-15T15:20:07;11.70;99.90
11573;DHT22;5842;52.426;4.886;2022-11-15T15:22:34;11.70;99.90
11573;DHT22;5842;52.426;4.886;2022-11-15T15:25:17;11.70;99.90
11573;DHT22;5842;52.426;4.886;2022-11-15T15:27:45;11.70;99.90
11573;DHT22;5842;52.426;4.886;2022-11-15T15:30:13;11.70;99.90
11573;DHT22;5842;52.426;4.886;2022-11-15T15:32:40;11.70;99.90
11573;DHT22;5842;52.426;4.886;2022-11-15T15:35:10;11.60;99.90
11573;DHT22;5842;52.426;4.886;2022-11-15T15:37:38;11.60;99.90
11573;DHT22;5842;52.426;4.886;2022-11-15T15:40:12;11.50;99.90
11573;DHT22;5842;52.426;4.886;2022-11-15T15:42:40;11.50;99.90
11573;DHT22;5842;52.426;4.886;2022-11-15T15:45:08;11.50;99.90
11573;DHT22;5842;52.426;4.886;2022-11-15T15:47:36;11.50;99.90
11573;DHT22;5842;52.426;4.886;2022-11-15T15:50:03;11.50;99.90
11573;DHT22;5842;52.426;4.886;2022-11-15T15:52:31;11.50;99.90
11573;DHT22;5842;52.426;4.886;2022-11-15T15:54:58;11.50;99.90
11573;DHT22;5842;52.426;4.886;2022-11-15T15:57:27;11.50;99.90
11573;DHT22;5842;52.426;4.886;2022-11-15T15:59:54;11.50;99.90
11573;DHT22;5842;52.426;4.886;2022-11-15T16:02:21;11.50;99.90
11573;DHT22;5842;52.426;4.886;2022-11-15T16:04:48;11.50;99.90
11573;DHT22;5842;52.426;4.886;2022-11-15T16:07:20;11.40;99.90
11573;DHT22;5842;52.426;4.886;2022-11-15T16:09:49;11.50;99.90
11573;DHT22;5842;52.426;4.886;2022-11-15T16:12:35;11.60;99.90
11573;DHT22;5842;52.426;4.886;2022-11-15T16:15:03;11.60;99.90
11573;DHT22;5842;52.426;4.886;2022-11-15T16:17:31;11.60;99.90
11573;DHT22;5842;52.426;4.886;2022-11-15T16:19:59;11.50;99.90
11573;DHT22;5842;52.426;4.886;2022-11-15T16:22:26;11.50;99.90
11573;DHT22;5842;52.426;4.886;2022-11-15T16:24:54;11.60;99.90
11573;DHT22;5842;52.426;4.886;2022-11-15T16:27:22;11.60;99.90
11573;DHT22;5842;52.426;4.886;2022-11-15T16:29:50;11.60;99.90
11573;DHT22;5842;52.426;4.886;2022-11-15T16:32:18;11.60;99.90
11573;DHT22;5842;52.426;4.886;2022-11-15T16:34:45;11.60;99.90
11573;DHT22;5842;52.426;4.886;2022-11-15T16:37:21;11.70;99.90